sensor_id;sensor_type;location;lat;lon;timestamp;temperature;humidity
21167;DHT22;10741;52.272;9.580;2023-04-28T00:00:43;6.40;99.90
21167;DHT22;10741;52.272;9.580;2023-04-28T00:03:09;6.40;99.90
21167;DHT22;10741;52.272;9.580;2023-04-28T00:05:35;6.40;99.90
21167;DHT22;10741;52.272;9.580;2023-04-28T00:08:01;6.40;99.90
21167;DHT22;10741;52.272;9.580;2023-04-28T00:10:29;6.40;99.90
21167;DHT22;10741;52.272;9.580;2023-04-28T00:12:55;6.40;99.90
21167;DHT22;10741;52.272;9.580;2023-04-28T00:15:21;6.40;99.90
21167;DHT22;10741;52.272;9.580;2023-04-28T00:17:46;6.40;99.90
21167;DHT22;10741;52.272;9.580;2023-04-28T00:20:12;6.40;99.90
21167;DHT22;10741;52.272;9.580;2023-04-28T00:22:38;6.50;99.90
21167;DHT22;10741;52.272;9.580;2023-04-28T00:25:05;5.40;99.90
21167;DHT22;10741;52.272;9.580;2023-04-28T00:27:32;6.50;99.90
21167;DHT22;10741;52.272;9.580;2023-04-28T00:29:58;6.50;99.90
21167;DHT22;10741;52.272;9.580;2023-04-28T00:32:23;6.50;99.90
21167;DHT22;10741;52.272;9.580;2023-04-28T00:34:49;6.50;99.90
21167;DHT22;10741;52.272;9.580;2023-04-28T00:37:16;6.50;99.90
21167;DHT22;10741;52.272;9.580;2023-04-28T00:39:42;6.60;99.90
21167;DHT22;10741;52.272;9.580;2023-04-28T00:42:12;6.60;99.90
21167;DHT22;10741;52.272;9.580;2023-04-28T00:44:38;6.60;99.90
21167;DHT22;10741;52.272;9.580;2023-04-28T00:47:05;6.70;99.90
21167;DHT22;10741;52.272;9.580;2023-04-28T00:49:32;6.70;99.90
21167;DHT22;10741;52.272;9.580;2023-04-28T00:52:06;6.70;99.90
21167;DHT22;10741;52.272;9.580;2023-04-28T00:54:32;6.70;99.90
21167;DHT22;10741;52.272;9.580;2023-04-28T00:57:02;6.80;99.90
21167;DHT22;10741;52.272;9.580;2023-04-28T00:59:29;6.80;99.90
21167;DHT22;10741;52.272;9.580;2023-04-28T01:01:55;6.80;99.90
21167;DHT22;10741;52.272;9.580;2023-04-28T01:04:22;6.80;99.90
21167;DHT22;10741;52.272;9.580;2023-04-28T01:06:50;6.90;99.90
21167;DHT22;10741;52.272;9.580;2023-04-28T01:09:17;6.90;99.90
21167;DHT22;10741;52.272;9.580;2023-04-28T01:11:42;6.90;99.90
21167;DHT22;10741;52.272;9.580;2023-04-28T01:14:08;6.90;99.90
21167;DHT22;10741;52.272;9.580;2023-04-28T01:16:34;6.90;99.90
21167;DHT22;10741;52.272;9.580;2023-04-28T01:19:02;6.80;99.90
21167;DHT22;10741;52.272;9.580;2023-04-28T01:21:32;6.80;99.90
21167;DHT22;10741;52.272;9.580;2023-04-28T01:23:59;6.80;99.90
21167;DHT22;10741;52.272;9.580;2023-04-28T01:26:26;6.80;99.90
21167;DHT22;10741;52.272;9.580;2023-04-28T01:28:51;6.70;99.90
21167;DHT22;10741;52.272;9.580;2023-04-28T01:31:17;6.70;99.90
21167;DHT22;10741;52.272;9.580;2023-04-28T01:33:43;6.70;99.90
21167;DHT22;10741;52.272;9.580;2023-04-28T01:36:09;6.70;99.90
21167;DHT22;10741;52.272;9.580;2023-04-28T01:38:35;6.70;99.90
21167;DHT22;10741;52.272;9.580;2023-04-28T01:41:01;6.70;99.90
21167;DHT22;10741;52.272;9.580;2023-04-28T01:43:27;6.70;99.90
21167;DHT22;10741;52.272;9.580;2023-04-28T01:45:53;6.70;99.90
21167;DHT22;10741;52.272;9.580;2023-04-28T01:48:19;6.70;99.90
21167;DHT22;10741;52.272;9.580;2023-04-28T01:50:45;6.80;99.90
21167;DHT22;10741;52.272;9.580;2023-04-28T01:53:11;6.70;99.90
21167;DHT22;10741;52.272;9.580;2023-04-28T01:55:37;6.70;99.90
21167;DHT22;10741;52.272;9.580;2023-04-28T01:58:03;6.70;99.90
21167;DHT22;10741;52.272;9.580;2023-04-28T02:00:29;6.80;99.90
21167;DHT22;10741;52.272;9.580;2023-04-28T02:02:55;6.80;99.90
21167;DHT22;10741;52.272;9.580;2023-04-28T02:05:21;6.80;99.90
21167;DHT22;10741;52.272;9.580;2023-04-28T02:07:47;6.80;99.90
21167;DHT22;10741;52.272;9.580;2023-04-28T02:10:13;6.70;99.90
21167;DHT22;10741;52.272;9.580;2023-04-28T02:12:38;6.60;99.90
21167;DHT22;10741;52.272;9.580;2023-04-28T02:15:07;6.60;99.90
21167;DHT22;10741;52.272;9.580;2023-04-28T02:17:33;6.60;99.90
21167;DHT22;10741;52.272;9.580;2023-04-28T02:19:59;6.50;99.90
21167;DHT22;10741;52.272;9.580;2023-04-28T02:22:25;6.50;99.90
21167;DHT22;10741;52.272;9.580;2023-04-28T02:24:51;6.60;99.90
21167;DHT22;10741;52.272;9.580;2023-04-28T02:27:17;6.60;99.90
21167;DHT22;10741;52.272;9.580;2023-04-28T02:29:43;6.60;99.90
21167;DHT22;10741;52.272;9.580;2023-04-28T02:32:08;6.60;99.90
21167;DHT22;10741;52.272;9.580;2023-04-28T02:34:34;6.50;99.90
21167;DHT22;10741;52.272;9.580;2023-04-28T02:37:00;6.50;99.90
21167;DHT22;10741;52.272;9.580;2023-04-28T02:39:26;6.50;99.90
21167;DHT22;10741;52.272;9.580;2023-04-28T02:41:54;6.50;99.90
21167;DHT22;10741;52.272;9.580;2023-04-28T02:44:21;6.50;99.90
21167;DHT22;10741;52.272;9.580;2023-04-28T02:46:47;6.60;99.90
21167;DHT22;10741;52.272;9.580;2023-04-28T02:49:13;6.40;99.90
21167;DHT22;10741;52.272;9.580;2023-04-28T02:51:39;6.50;99.90
21167;DHT22;10741;52.272;9.580;2023-04-28T02:54:06;6.50;99.90
21167;DHT22;10741;52.272;9.580;2023-04-28T02:56:32;6.50;99.90
21167;DHT22;10741;52.272;9.580;2023-04-28T02:58:58;6.40;99.90
21167;DHT22;10741;52.272;9.580;2023-04-28T03:01:24;6.50;99.90
21167;DHT22;10741;52.272;9.580;2023-04-28T03:03:50;7.50;99.90
21167;DHT22;10741;52.272;9.580;2023-04-28T03:06:16;6.40;99.90
21167;DHT22;10741;52.272;9.580;2023-04-28T03:08:42;6.40;99.90
21167;DHT22;10741;52.272;9.580;2023-04-28T03:11:07;6.40;99.90
21167;DHT22;10741;52.272;9.580;2023-04-28T03:13:33;6.40;99.90
21167;DHT22;10741;52.272;9.580;2023-04-28T03:16:00;6.40;99.90
21167;DHT22;10741;52.272;9.580;2023-04-28T03:18:26;6.30;99.90
21167;DHT22;10741;52.272;9.580;2023-04-28T03:20:52;6.30;99.90
21167;DHT22;10741;52.272;9.580;2023-04-28T03:23:17;6.30;99.90
21167;DHT22;10741;52.272;9.580;2023-04-28T03:25:43;6.30;99.90
21167;DHT22;10741;52.272;9.580;2023-04-28T03:28:09;6.20;99.90
21167;DHT22;10741;52.272;9.580;2023-04-28T03:30:35;6.20;99.90
21167;DHT22;10741;52.272;9.580;2023-04-28T03:33:01;6.20;99.90
21167;DHT22;10741;52.272;9.580;2023-04-28T03:35:26;6.10;99.90
21167;DHT22;10741;52.272;9.580;2023-04-28T03:37:52;6.10;99.90
21167;DHT22;10741;52.272;9.580;2023-04-28T03:40:18;6.00;99.90
21167;DHT22;10741;52.272;9.580;2023-04-28T03:42:44;6.00;99.90
21167;DHT22;10741;52.272;9.580;2023-04-28T03:45:10;5.90;99.90
21167;DHT22;10741;52.272;9.580;2023-04-28T03:47:35;5.90;99.90
21167;DHT22;10741;52.272;9.580;2023-04-28T03:50:01;5.90;99.90
21167;DHT22;10741;52.272;9.580;2023-04-28T03:52:27;5.90;99.90
21167;DHT22;10741;52.272;9.580;2023-04-28T03:54:53;5.90;99.90
21167;DHT22;10741;52.272;9.580;2023-04-28T03:57:19;5.90;99.90
21167;DHT22;10741;52.272;9.580;2023-04-28T03:59:45;5.80;99.90
21167;DHT22;10741;52.272;9.580;2023-04-28T04:02:11;5.90;99.90
21167;DHT22;10741;52.272;9.580;2023-04-28T04:04:36;5.90;99.90
21167;DHT22;10741;52.272;9.580;2023-04-28T04:07:02;5.90;99.90
21167;DHT22;10741;52.272;9.580;2023-04-28T04:09:28;6.00;99.90
21167;DHT22;10741;52.272;9.580;2023-04-28T04:11:54;6.00;99.90
21167;DHT22;10741;52.272;9.580;2023-04-28T04:14:20;6.00;99.90
21167;DHT22;10741;52.272;9.580;2023-04-28T04:16:47;6.00;99.90
21167;DHT22;10741;52.272;9.580;2023-04-28T04:19:13;6.00;99.90
21167;DHT22;10741;52.272;9.580;2023-04-28T04:21:39;6.10;99.90
21167;DHT22;10741;52.272;9.580;2023-04-28T04:24:05;6.10;99.90
21167;DHT22;10741;52.272;9.580;2023-04-28T04:26:31;6.10;99.90
21167;DHT22;10741;52.272;9.580;2023-04-28T04:28:57;6.10;99.90
21167;DHT22;10741;52.272;9.580;2023-04-28T04:31:23;6.20;99.90
21167;DHT22;10741;52.272;9.580;2023-04-28T04:33:48;6.20;99.90
21167;DHT22;10741;52.272;9.580;2023-04-28T04:36:14;6.20;99.90
21167;DHT22;10741;52.272;9.580;2023-04-28T04:38:40;6.30;99.90
21167;DHT22;10741;52.272;9.580;2023-04-28T04:41:06;6.30;99.90
21167;DHT22;10741;52.272;9.580;2023-04-28T04:43:31;6.40;99.90
21167;DHT22;10741;52.272;9.580;2023-04-28T04:45:57;6.40;99.90
21167;DHT22;10741;52.272;9.580;2023-04-28T04:48:23;6.40;99.90
21167;DHT22;10741;52.272;9.580;2023-04-28T04:50:48;6.50;99.90
21167;DHT22;10741;52.272;9.580;2023-04-28T04:53:14;6.50;99.90
21167;DHT22;10741;52.272;9.580;2023-04-28T04:55:40;6.50;99.90
21167;DHT22;10741;52.272;9.580;2023-04-28T04:58:06;6.60;99.90
21167;DHT22;10741;52.272;9.580;2023-04-28T05:00:32;6.60;99.90
21167;DHT22;10741;52.272;9.580;2023-04-28T05:02:58;6.60;99.90
21167;DHT22;10741;52.272;9.580;2023-04-28T05:05:24;6.60;99.90
21167;DHT22;10741;52.272;9.580;2023-04-28T05:07:50;6.70;99.90
21167;DHT22;10741;52.272;9.580;2023-04-28T05:10:15;6.70;99.90
21167;DHT22;10741;52.272;9.580;2023-04-28T05:12:41;6.80;99.90
21167;DHT22;10741;52.272;9.580;2023-04-28T05:15:09;6.90;99.90
21167;DHT22;10741;52.272;9.580;2023-04-28T05:17:35;6.90;99.90
21167;DHT22;10741;52.272;9.580;2023-04-28T05:20:01;6.90;99.90
21167;DHT22;10741;52.272;9.580;2023-04-28T05:22:27;6.90;99.90
21167;DHT22;10741;52.272;9.580;2023-04-28T05:24:53;6.90;99.90
21167;DHT22;10741;52.272;9.580;2023-04-28T05:27:19;7.00;99.90
21167;DHT22;10741;52.272;9.580;2023-04-28T05:29:44;7.10;99.90
21167;DHT22;10741;52.272;9.580;2023-04-28T05:32:10;7.10;99.90
21167;DHT22;10741;52.272;9.580;2023-04-28T05:34:36;7.20;99.90
21167;DHT22;10741;52.272;9.580;2023-04-28T05:37:02;7.20;99.90
21167;DHT22;10741;52.272;9.580;2023-04-28T05:39:27;7.30;99.90
21167;DHT22;10741;52.272;9.580;2023-04-28T05:41:53;7.40;99.90
21167;DHT22;10741;52.272;9.580;2023-04-28T05:44:19;7.40;99.90
21167;DHT22;10741;52.272;9.580;2023-04-28T05:46:44;7.50;99.90
21167;DHT22;10741;52.272;9.580;2023-04-28T05:49:10;7.60;99.90
21167;DHT22;10741;52.272;9.580;2023-04-28T05:51:36;7.60;99.90
21167;DHT22;10741;52.272;9.580;2023-04-28T05:54:03;7.60;99.90
21167;DHT22;10741;52.272;9.580;2023-04-28T05:56:28;7.80;99.90
21167;DHT22;10741;52.272;9.580;2023-04-28T05:58:54;7.90;99.90
21167;DHT22;10741;52.272;9.580;2023-04-28T06:01:21;7.90;99.90
21167;DHT22;10741;52.272;9.580;2023-04-28T06:03:47;7.90;99.90
21167;DHT22;10741;52.272;9.580;2023-04-28T06:06:13;8.00;99.90
21167;DHT22;10741;52.272;9.580;2023-04-28T06:08:39;8.00;99.90
21167;DHT22;10741;52.272;9.580;2023-04-28T06:11:08;8.00;99.90
21167;DHT22;10741;52.272;9.580;2023-04-28T06:13:34;8.00;99.90
21167;DHT22;10741;52.272;9.580;2023-04-28T06:16:00;8.10;99.90
21167;DHT22;10741;52.272;9.580;2023-04-28T06:18:25;8.20;99.90
21167;DHT22;10741;52.272;9.580;2023-04-28T06:20:51;8.30;99.90
21167;DHT22;10741;52.272;9.580;2023-04-28T06:23:17;8.30;99.90
21167;DHT22;10741;52.272;9.580;2023-04-28T06:25:43;8.40;99.90
21167;DHT22;10741;52.272;9.580;2023-04-28T06:28:09;8.50;99.90
21167;DHT22;10741;52.272;9.580;2023-04-28T06:30:36;8.50;99.90
21167;DHT22;10741;52.272;9.580;2023-04-28T06:33:02;8.60;99.90
21167;DHT22;10741;52.272;9.580;2023-04-28T06:35:28;8.70;99.90
21167;DHT22;10741;52.272;9.580;2023-04-28T06:37:54;8.80;99.90
21167;DHT22;10741;52.272;9.580;2023-04-28T06:40:19;8.90;99.90
21167;DHT22;10741;52.272;9.580;2023-04-28T06:42:45;9.00;99.90
21167;DHT22;10741;52.272;9.580;2023-04-28T06:45:11;9.20;99.90
21167;DHT22;10741;52.272;9.580;2023-04-28T06:47:37;9.30;99.90
21167;DHT22;10741;52.272;9.580;2023-04-28T06:50:05;9.40;99.90
21167;DHT22;10741;52.272;9.580;2023-04-28T06:52:31;9.50;99.90
21167;DHT22;10741;52.272;9.580;2023-04-28T06:54:57;9.50;99.90
21167;DHT22;10741;52.272;9.580;2023-04-28T06:57:22;9.60;99.90
21167;DHT22;10741;52.272;9.580;2023-04-28T06:59:48;9.70;99.90
21167;DHT22;10741;52.272;9.580;2023-04-28T07:02:14;9.80;99.90
21167;DHT22;10741;52.272;9.580;2023-04-28T07:04:40;9.90;99.90
21167;DHT22;10741;52.272;9.580;2023-04-28T07:07:05;10.00;99.90
21167;DHT22;10741;52.272;9.580;2023-04-28T07:09:33;10.00;99.90
21167;DHT22;10741;52.272;9.580;2023-04-28T07:11:59;10.20;99.90
21167;DHT22;10741;52.272;9.580;2023-04-28T07:14:25;10.30;99.90
21167;DHT22;10741;52.272;9.580;2023-04-28T07:16:51;10.40;99.90
21167;DHT22;10741;52.272;9.580;2023-04-28T07:19:17;10.40;99.90
21167;DHT22;10741;52.272;9.580;2023-04-28T07:21:42;10.50;99.90
21167;DHT22;10741;52.272;9.580;2023-04-28T07:24:08;10.50;99.90
21167;DHT22;10741;52.272;9.580;2023-04-28T07:26:34;10.60;99.90
21167;DHT22;10741;52.272;9.580;2023-04-28T07:29:00;10.60;99.90
21167;DHT22;10741;52.272;9.580;2023-04-28T07:31:26;10.70;99.90
21167;DHT22;10741;52.272;9.580;2023-04-28T07:33:53;10.80;99.90
21167;DHT22;10741;52.272;9.580;2023-04-28T07:36:19;10.90;99.90
21167;DHT22;10741;52.272;9.580;2023-04-28T07:38:45;11.00;99.90
21167;DHT22;10741;52.272;9.580;2023-04-28T07:41:11;11.00;99.90
21167;DHT22;10741;52.272;9.580;2023-04-28T07:43:38;11.10;99.90
21167;DHT22;10741;52.272;9.580;2023-04-28T07:46:06;11.00;99.90
21167;DHT22;10741;52.272;9.580;2023-04-28T07:48:33;11.10;99.90
21167;DHT22;10741;52.272;9.580;2023-04-28T07:50:59;11.10;99.90
21167;DHT22;10741;52.272;9.580;2023-04-28T07:53:25;11.20;99.90
21167;DHT22;10741;52.272;9.580;2023-04-28T07:55:51;11.40;99.90
21167;DHT22;10741;52.272;9.580;2023-04-28T07:58:17;11.70;99.90
21167;DHT22;10741;52.272;9.580;2023-04-28T08:00:42;11.90;99.90
21167;DHT22;10741;52.272;9.580;2023-04-28T08:03:08;12.10;99.90
21167;DHT22;10741;52.272;9.580;2023-04-28T08:05:34;12.10;99.90
21167;DHT22;10741;52.272;9.580;2023-04-28T08:08:00;12.20;99.90
21167;DHT22;10741;52.272;9.580;2023-04-28T08:10:25;12.30;99.90
21167;DHT22;10741;52.272;9.580;2023-04-28T08:12:52;12.30;99.90
21167;DHT22;10741;52.272;9.580;2023-04-28T08:15:18;12.30;99.90
21167;DHT22;10741;52.272;9.580;2023-04-28T08:17:43;12.20;99.90
21167;DHT22;10741;52.272;9.580;2023-04-28T08:20:09;12.10;99.90
21167;DHT22;10741;52.272;9.580;2023-04-28T08:22:36;12.00;99.90
21167;DHT22;10741;52.272;9.580;2023-04-28T08:25:02;11.90;99.90
21167;DHT22;10741;52.272;9.580;2023-04-28T08:27:27;11.90;99.90
21167;DHT22;10741;52.272;9.580;2023-04-28T08:29:53;12.00;99.90
21167;DHT22;10741;52.272;9.580;2023-04-28T08:32:19;12.00;99.90
21167;DHT22;10741;52.272;9.580;2023-04-28T08:34:45;12.10;99.90
21167;DHT22;10741;52.272;9.580;2023-04-28T08:37:10;12.00;99.90
21167;DHT22;10741;52.272;9.580;2023-04-28T08:39:36;12.00;99.90
21167;DHT22;10741;52.272;9.580;2023-04-28T08:42:03;12.00;99.90
21167;DHT22;10741;52.272;9.580;2023-04-28T08:44:38;11.80;99.90
21167;DHT22;10741;52.272;9.580;2023-04-28T08:47:11;11.80;99.90
21167;DHT22;10741;52.272;9.580;2023-04-28T08:49:38;11.70;99.90
21167;DHT22;10741;52.272;9.580;2023-04-28T08:52:10;11.60;99.90
21167;DHT22;10741;52.272;9.580;2023-04-28T08:54:37;11.60;99.90
21167;DHT22;10741;52.272;9.580;2023-04-28T08:57:07;11.60;99.90
21167;DHT22;10741;52.272;9.580;2023-04-28T08:59:36;11.70;99.90
21167;DHT22;10741;52.272;9.580;2023-04-28T09:02:03;11.90;99.90
21167;DHT22;10741;52.272;9.580;2023-04-28T09:04:28;12.20;99.90
21167;DHT22;10741;52.272;9.580;2023-04-28T09:06:54;12.30;99.90
21167;DHT22;10741;52.272;9.580;2023-04-28T09:09:25;12.40;99.90
21167;DHT22;10741;52.272;9.580;2023-04-28T09:11:52;12.40;99.90
21167;DHT22;10741;52.272;9.580;2023-04-28T09:14:20;12.50;99.90
21167;DHT22;10741;52.272;9.580;2023-04-28T09:16:46;12.60;99.90
21167;DHT22;10741;52.272;9.580;2023-04-28T09:19:11;12.70;99.90
21167;DHT22;10741;52.272;9.580;2023-04-28T09:21:54;12.70;99.90
21167;DHT22;10741;52.272;9.580;2023-04-28T09:24:36;12.80;99.90
21167;DHT22;10741;52.272;9.580;2023-04-28T09:27:07;12.70;99.90
21167;DHT22;10741;52.272;9.580;2023-04-28T09:29:36;12.70;99.90
21167;DHT22;10741;52.272;9.580;2023-04-28T09:32:21;12.70;99.90
21167;DHT22;10741;52.272;9.580;2023-04-28T09:34:49;12.80;99.90
21167;DHT22;10741;52.272;9.580;2023-04-28T09:37:21;12.90;99.90
21167;DHT22;10741;52.272;9.580;2023-04-28T09:39:48;13.10;99.90
21167;DHT22;10741;52.272;9.580;2023-04-28T09:42:42;13.20;99.90
21167;DHT22;10741;52.272;9.580;2023-04-28T09:45:11;13.30;99.90
21167;DHT22;10741;52.272;9.580;2023-04-28T09:47:39;13.30;99.90
21167;DHT22;10741;52.272;9.580;2023-04-28T09:50:07;13.30;99.90
21167;DHT22;10741;52.272;9.580;2023-04-28T09:52:36;13.30;99.90
21167;DHT22;10741;52.272;9.580;2023-04-28T09:55:05;13.30;99.90
21167;DHT22;10741;52.272;9.580;2023-04-28T09:57:33;13.20;99.90
21167;DHT22;10741;52.272;9.580;2023-04-28T10:00:00;13.20;99.90
21167;DHT22;10741;52.272;9.580;2023-04-28T10:02:27;13.20;99.90
21167;DHT22;10741;52.272;9.580;2023-04-28T10:04:53;13.20;99.90
21167;DHT22;10741;52.272;9.580;2023-04-28T10:07:20;13.20;99.90
21167;DHT22;10741;52.272;9.580;2023-04-28T10:09:49;13.30;99.90
21167;DHT22;10741;52.272;9.580;2023-04-28T10:12:19;13.20;99.90
21167;DHT22;10741;52.272;9.580;2023-04-28T10:14:47;13.10;99.90
21167;DHT22;10741;52.272;9.580;2023-04-28T10:17:15;13.20;99.90
21167;DHT22;10741;52.272;9.580;2023-04-28T10:19:43;13.20;99.90
21167;DHT22;10741;52.272;9.580;2023-04-28T10:27:38;13.40;99.90
21167;DHT22;10741;52.272;9.580;2023-04-28T10:30:12;13.60;99.90
21167;DHT22;10741;52.272;9.580;2023-04-28T10:32:39;13.60;99.90
21167;DHT22;10741;52.272;9.580;2023-04-28T10:38:07;13.60;99.90
21167;DHT22;10741;52.272;9.580;2023-04-28T10:40:33;13.70;99.90
21167;DHT22;10741;52.272;9.580;2023-04-28T10:43:00;13.70;99.90
21167;DHT22;10741;52.272;9.580;2023-04-28T10:56:26;13.60;99.90
21167;DHT22;10741;52.272;9.580;2023-04-28T10:58:52;13.60;99.90
21167;DHT22;10741;52.272;9.580;2023-04-28T11:04:02;13.70;99.90
21167;DHT22;10741;52.272;9.580;2023-04-28T11:06:33;13.70;99.90
21167;DHT22;10741;52.272;9.580;2023-04-28T11:09:01;13.70;99.90
21167;DHT22;10741;52.272;9.580;2023-04-28T11:11:28;13.70;99.90
21167;DHT22;10741;52.272;9.580;2023-04-28T11:16:54;14.00;99.90
21167;DHT22;10741;52.272;9.580;2023-04-28T11:19:21;14.10;99.90
21167;DHT22;10741;52.272;9.580;2023-04-28T11:21:49;14.10;99.90
21167;DHT22;10741;52.272;9.580;2023-04-28T11:24:15;14.20;99.90
21167;DHT22;10741;52.272;9.580;2023-04-28T11:26:42;14.20;99.90
21167;DHT22;10741;52.272;9.580;2023-04-28T11:29:09;14.20;99.90
21167;DHT22;10741;52.272;9.580;2023-04-28T11:31:35;14.20;99.90
21167;DHT22;10741;52.272;9.580;2023-04-28T11:34:19;14.20;99.90
21167;DHT22;10741;52.272;9.580;2023-04-28T11:36:48;14.20;99.90
21167;DHT22;10741;52.272;9.580;2023-04-28T11:39:14;14.20;99.90
21167;DHT22;10741;52.272;9.580;2023-04-28T11:41:42;14.30;99.90
21167;DHT22;10741;52.272;9.580;2023-04-28T11:46:56;14.50;99.90
21167;DHT22;10741;52.272;9.580;2023-04-28T11:49:40;14.50;99.90
21167;DHT22;10741;52.272;9.580;2023-04-28T11:52:07;14.50;99.90
21167;DHT22;10741;52.272;9.580;2023-04-28T11:54:34;14.50;99.90
21167;DHT22;10741;52.272;9.580;2023-04-28T11:57:00;14.50;99.90
21167;DHT22;10741;52.272;9.580;2023-04-28T11:59:35;14.40;99.90
21167;DHT22;10741;52.272;9.580;2023-04-28T12:02:05;14.30;99.90
21167;DHT22;10741;52.272;9.580;2023-04-28T12:07:04;14.00;99.90
21167;DHT22;10741;52.272;9.580;2023-04-28T12:09:32;13.90;99.90
21167;DHT22;10741;52.272;9.580;2023-04-28T12:12:00;13.80;99.90
21167;DHT22;10741;52.272;9.580;2023-04-28T12:14:28;13.80;99.90
21167;DHT22;10741;52.272;9.580;2023-04-28T12:16:54;13.70;99.90
21167;DHT22;10741;52.272;9.580;2023-04-28T12:19:21;13.50;99.90
21167;DHT22;10741;52.272;9.580;2023-04-28T12:22:02;13.20;99.90
21167;DHT22;10741;52.272;9.580;2023-04-28T12:24:28;12.60;99.90
21167;DHT22;10741;52.272;9.580;2023-04-28T12:26:53;12.30;99.90
21167;DHT22;10741;52.272;9.580;2023-04-28T12:29:39;12.20;99.90
21167;DHT22;10741;52.272;9.580;2023-04-28T12:32:09;12.00;99.90
21167;DHT22;10741;52.272;9.580;2023-04-28T12:34:36;11.90;99.90
21167;DHT22;10741;52.272;9.580;2023-04-28T12:37:02;11.90;99.90
21167;DHT22;10741;52.272;9.580;2023-04-28T12:39:31;12.00;99.90
21167;DHT22;10741;52.272;9.580;2023-04-28T12:41:57;12.10;99.90
21167;DHT22;10741;52.272;9.580;2023-04-28T12:44:32;12.10;99.90
21167;DHT22;10741;52.272;9.580;2023-04-28T12:47:08;12.10;99.90
21167;DHT22;10741;52.272;9.580;2023-04-28T12:49:35;12.10;99.90
21167;DHT22;10741;52.272;9.580;2023-04-28T12:52:03;12.00;99.90
21167;DHT22;10741;52.272;9.580;2023-04-28T12:54:29;12.00;99.90
21167;DHT22;10741;52.272;9.580;2023-04-28T12:56:55;12.20;99.90
21167;DHT22;10741;52.272;9.580;2023-04-28T12:59:21;12.60;99.90
21167;DHT22;10741;52.272;9.580;2023-04-28T13:01:48;13.00;99.90
21167;DHT22;10741;52.272;9.580;2023-04-28T13:04:15;13.30;99.90
21167;DHT22;10741;52.272;9.580;2023-04-28T13:06:41;13.30;99.90
21167;DHT22;10741;52.272;9.580;2023-04-28T13:09:12;13.30;99.90
21167;DHT22;10741;52.272;9.580;2023-04-28T13:11:39;13.30;99.90
21167;DHT22;10741;52.272;9.580;2023-04-28T13:14:06;13.40;99.90
21167;DHT22;10741;52.272;9.580;2023-04-28T13:16:32;13.40;99.90
21167;DHT22;10741;52.272;9.580;2023-04-28T13:19:00;13.40;99.90
21167;DHT22;10741;52.272;9.580;2023-04-28T13:21:26;13.40;99.90
21167;DHT22;10741;52.272;9.580;2023-04-28T13:23:53;13.50;99.90
21167;DHT22;10741;52.272;9.580;2023-04-28T13:26:20;13.40;99.90
21167;DHT22;10741;52.272;9.580;2023-04-28T13:28:49;13.30;99.90
21167;DHT22;10741;52.272;9.580;2023-04-28T13:31:15;13.20;99.90
21167;DHT22;10741;52.272;9.580;2023-04-28T13:33:41;13.30;99.90
21167;DHT22;10741;52.272;9.580;2023-04-28T13:36:08;13.20;99.90
21167;DHT22;10741;52.272;9.580;2023-04-28T13:38:34;13.20;99.90
21167;DHT22;10741;52.272;9.580;2023-04-28T13:41:00;13.10;99.90
21167;DHT22;10741;52.272;9.580;2023-04-28T13:43:26;13.10;99.90
21167;DHT22;10741;52.272;9.580;2023-04-28T13:45:52;13.10;99.90
21167;DHT22;10741;52.272;9.580;2023-04-28T13:48:18;13.20;99.90
21167;DHT22;10741;52.272;9.580;2023-04-28T13:50:44;13.20;99.90
21167;DHT22;10741;52.272;9.580;2023-04-28T13:53:10;13.30;99.90
21167;DHT22;10741;52.272;9.580;2023-04-28T13:55:36;13.40;99.90
21167;DHT22;10741;52.272;9.580;2023-04-28T13:58:02;13.60;99.90
21167;DHT22;10741;52.272;9.580;2023-04-28T14:00:32;13.90;99.90
21167;DHT22;10741;52.272;9.580;2023-04-28T14:02:59;14.40;99.90
21167;DHT22;10741;52.272;9.580;2023-04-28T14:05:26;15.10;99.90
21167;DHT22;10741;52.272;9.580;2023-04-28T14:07:55;15.70;99.90
21167;DHT22;10741;52.272;9.580;2023-04-28T14:10:21;16.00;99.90
21167;DHT22;10741;52.272;9.580;2023-04-28T14:12:47;15.90;99.90
21167;DHT22;10741;52.272;9.580;2023-04-28T14:15:14;15.50;99.90
21167;DHT22;10741;52.272;9.580;2023-04-28T14:17:41;15.30;99.90
21167;DHT22;10741;52.272;9.580;2023-04-28T14:20:07;15.10;99.90
21167;DHT22;10741;52.272;9.580;2023-04-28T14:22:37;14.80;99.90
21167;DHT22;10741;52.272;9.580;2023-04-28T14:25:03;14.60;99.90
21167;DHT22;10741;52.272;9.580;2023-04-28T14:27:29;14.40;99.90
21167;DHT22;10741;52.272;9.580;2023-04-28T14:29:55;14.40;99.90
21167;DHT22;10741;52.272;9.580;2023-04-28T14:32:21;14.30;99.90
21167;DHT22;10741;52.272;9.580;2023-04-28T14:34:48;14.40;99.90
21167;DHT22;10741;52.272;9.580;2023-04-28T14:37:14;14.50;99.90
21167;DHT22;10741;52.272;9.580;2023-04-28T14:39:41;14.80;99.90
21167;DHT22;10741;52.272;9.580;2023-04-28T14:42:07;15.30;99.90
21167;DHT22;10741;52.272;9.580;2023-04-28T14:44:33;15.60;99.90
21167;DHT22;10741;52.272;9.580;2023-04-28T14:47:00;16.30;99.90
21167;DHT22;10741;52.272;9.580;2023-04-28T14:49:26;16.00;99.90
21167;DHT22;10741;52.272;9.580;2023-04-28T14:51:52;15.40;99.90
21167;DHT22;10741;52.272;9.580;2023-04-28T14:54:19;15.10;99.90
21167;DHT22;10741;52.272;9.580;2023-04-28T14:56:47;14.80;99.90
21167;DHT22;10741;52.272;9.580;2023-04-28T14:59:13;14.70;99.90
21167;DHT22;10741;52.272;9.580;2023-04-28T15:01:38;14.60;99.90
21167;DHT22;10741;52.272;9.580;2023-04-28T15:04:04;14.70;99.90
21167;DHT22;10741;52.272;9.580;2023-04-28T15:06:30;14.70;99.90
21167;DHT22;10741;52.272;9.580;2023-04-28T15:08:57;14.90;99.90
21167;DHT22;10741;52.272;9.580;2023-04-28T15:11:23;15.10;99.90
21167;DHT22;10741;52.272;9.580;2023-04-28T15:13:48;15.30;99.90
21167;DHT22;10741;52.272;9.580;2023-04-28T15:16:14;15.30;99.90
21167;DHT22;10741;52.272;9.580;2023-04-28T15:18:40;15.30;99.90
21167;DHT22;10741;52.272;9.580;2023-04-28T15:21:06;15.20;99.90
21167;DHT22;10741;52.272;9.580;2023-04-28T15:23:33;15.20;99.90
21167;DHT22;10741;52.272;9.580;2023-04-28T15:25:59;15.20;99.90
21167;DHT22;10741;52.272;9.580;2023-04-28T15:28:25;15.00;99.90
21167;DHT22;10741;52.272;9.580;2023-04-28T15:30:52;14.90;99.90
21167;DHT22;10741;52.272;9.580;2023-04-28T15:33:18;14.80;99.90
21167;DHT22;10741;52.272;9.580;2023-04-28T15:35:44;14.80;99.90
21167;DHT22;10741;52.272;9.580;2023-04-28T15:38:11;14.70;99.90
21167;DHT22;10741;52.272;9.580;2023-04-28T15:40:38;14.60;99.90
21167;DHT22;10741;52.272;9.580;2023-04-28T15:43:05;14.40;99.90
21167;DHT22;10741;52.272;9.580;2023-04-28T15:45:31;14.20;99.90
21167;DHT22;10741;52.272;9.580;2023-04-28T15:47:58;14.10;99.90
21167;DHT22;10741;52.272;9.580;2023-04-28T15:50:25;14.00;99.90
21167;DHT22;10741;52.272;9.580;2023-04-28T15:52:51;13.80;99.90
21167;DHT22;10741;52.272;9.580;2023-04-28T15:55:19;13.80;99.90
21167;DHT22;10741;52.272;9.580;2023-04-28T15:57:46;13.80;99.90
21167;DHT22;10741;52.272;9.580;2023-04-28T16:00:13;13.70;99.90
21167;DHT22;10741;52.272;9.580;2023-04-28T16:02:40;13.60;99.90
21167;DHT22;10741;52.272;9.580;2023-04-28T16:05:07;13.40;99.90